NCAR-RAP Real-Time Weather Data

Output produced by METARs form (23 February 2020  00:53 UTC)
found at http://weather.rap.ucar.edu/surface/
 
KSAV 222353Z 04003KT 10SM FEW250 11/M04 A3037 RMK AO2 SLP284 T01061044 10139 20094 56006 $
KSAV 222253Z 00000KT 10SM FEW250 13/M06 A3038 RMK AO2 SLP287 T01281061 $
KSAV 222153Z 06004KT 10SM FEW250 14/M06 A3038 RMK AO2 SLP286 T01391061 $
KSAV 222053Z 02003KT 10SM FEW250 13/M07 A3039 RMK AO2 SLP290 T01331072 56027 $
KSAV 221953Z AUTO 00000KT 10SM FEW250 13/M07 A3040 RMK AO2 SLP294 T01331072 $
KSAV 221853Z 07005KT 10SM FEW250 12/M07 A3043 RMK AO2 SLP306 T01221072 $
KSAV 221753Z 08008KT 10SM CLR 12/M09 A3047 RMK AO2 SLP317 T01171089 10122 21017 58017 $
KSAV 221653Z 06008KT 10SM CLR 11/M08 A3050 RMK AO2 SLP327 T01061078 $
KSAV 221553Z 06010KT 10SM CLR 09/M07 A3052 RMK AO2 SLP334 T00891072 $
KSAV 221453Z 03007KT 010V070 10SM CLR 07/M05 A3052 RMK AO2 SLP333 T00721050 51019 $
KSAV 221353Z 02008KT 10SM CLR 04/M04 A3051 RMK AO2 SLP330 T00391044 $
KSAV 221253Z 03005KT 10SM CLR 01/M04 A3048 RMK AO2 SLP322 T00061044 $
KSAV 221153Z 02006KT 10SM CLR M02/M06 A3046 RMK AO2 SLP314 T10171056 10017 21017 53006 $
KSAV 221053Z 04005KT 10SM CLR M01/M05 A3043 RMK AO2 SLP305 T10061050 $
KSAV 220953Z AUTO 03007KT 10SM CLR M01/M05 A3044 RMK AO2 SLP307 T10061050 $
KSAV 220853Z AUTO 03005KT 10SM CLR M01/M05 A3044 RMK AO2 SLP308 T10061050 58003 $
KSAV 220753Z AUTO 02006KT 10SM CLR 00/M05 A3044 RMK AO2 SLP309 T00001050 $
KSAV 220653Z AUTO 03007KT 10SM CLR 01/M05 A3046 RMK AO2 SLP315 T00111050 $
KSAV 220553Z AUTO 04008KT 10SM CLR 02/M05 A3045 RMK AO2 SLP311 T00171050 10050 20011 58011 $
KSAV 220453Z 03007KT 10SM CLR 02/M05 A3047 RMK AO2 SLP317 LAST T00171050 401000017 $
KSAV 220353Z 03007KT 10SM CLR 03/M05 A3049 RMK AO2 SLP323 T00331050 $
KSAV 220253Z 03008KT 10SM CLR 04/M05 A3048 RMK AO2 SLP322 T00391050 52016 $
KSAV 220153Z 03008KT 10SM CLR 05/M04 A3047 RMK AO2 SLP318 T00501044 $
KSAV 220053Z 02008KT 10SM CLR 04/M04 A3045 RMK AO2 SLP310 T00441039 $
KSAV 212353Z 01008KT 10SM CLR 06/M03 A3043 RMK AO2 SLP306 T00561033 10094 20056 53015 $
KSAV 212253Z 36014KT 10SM CLR 07/M04 A3042 RMK AO2 SLP300 T00721039 $
KSAV 212153Z 36013G21KT 10SM CLR 08/M04 A3040 RMK AO2 SLP294 T00781039 $
KSAV 212053Z 36013KT 10SM CLR 09/M03 A3039 RMK AO2 SLP291 T00891028 56010 $
KSAV 211953Z 01016G21KT 10SM FEW045 09/M02 A3039 RMK AO2 SLP292 T00891022
KSAV 211853Z 02012KT 10SM BKN044 09/M02 A3040 RMK AO2 SLP294 T00891022
KSAV 211753Z 02018G25KT 10SM SCT040 09/M02 A3042 RMK AO2 SLP301 T00891022 10100 20044 50005
KSAV 211653Z COR 03016G24KT 10SM SCT037 08/M02 A3043 RMK AO2 SLP304 T00831017
KSAV 211553Z 04016G25KT 10SM SCT035 08/M02 A3042 RMK AO2 SLP302 T00781022
KSAV 211453Z 02015G23KT 10SM SCT031 06/M01 A3041 RMK AO2 SLP296 T00611006 51029
KSAV 211353Z 03011G27KT 10SM SCT029 06/M01 A3039 RMK AO2 PK WND 03027/1346 SLP290 T00561006
KSAV 211253Z 03017G23KT 10SM OVC028 04/M01 A3036 RMK AO2 SLP280 BINOVC T00441006
KSAV 211153Z 01012G21KT 10SM BKN027 OVC060 04/01 A3032 RMK AO2 SLP267 70084 T00440006 10050 20044 53023
KSAV 211053Z 01019G25KT 10SM OVC022 04/01 A3030 RMK AO2 PK WND 01026/1017 SLP259 T00440006
KSAV 210953Z AUTO 02014KT 10SM OVC018 05/02 A3027 RMK AO2 SLP250 T00500017
KSAV 210853Z AUTO 02014G22KT 10SM OVC019 05/02 A3025 RMK AO2 SLP244 T00500017 53007
KSAV 210753Z AUTO 02015G19KT 10SM OVC018 05/03 A3024 RMK AO2 SLP241 T00500028
KSAV 210732Z AUTO 01012G19KT 10SM OVC016 05/03 A3024 RMK AO2 T00500028
KSAV 210720Z AUTO 02012KT 10SM OVC014 05/03 A3024 RMK AO2 T00500033
KSAV 210706Z AUTO 02014G23KT 10SM OVC016 05/03 A3024 RMK AO2 T00500028
KSAV 210653Z AUTO 02016G29KT 10SM OVC013 05/03 A3023 RMK AO2 PK WND 01029/0648 SLP238 T00500028
KSAV 210634Z AUTO 02013G22KT 10SM BKN010 OVC014 05/03 A3023 RMK AO2 CIG 008V013 T00500033
KSAV 210621Z AUTO 01016G22KT 9SM BKN009 OVC014 05/03 A3024 RMK AO2 CIG 007V011 T00500033
KSAV 210601Z AUTO 36011KT 7SM FEW006 OVC011 05/04 A3024 RMK AO2 T00500039
KSAV 210553Z AUTO 01013KT 8SM OVC011 05/04 A3023 RMK AO2 SLP237 60021 T00500039 10067 20050 50007
KSAV 210510Z AUTO 01015KT 10SM OVC014 06/04 A3023 RMK AO2 T00560039
KSAV 210459Z AUTO 01015G20KT 10SM BKN009 OVC014 06/04 A3023 RMK AO2 CIG 007V013 T00560039
KSAV 210453Z 01012KT 10SM BKN011 OVC016 06/04 A3024 RMK AO2 CIG 007V013 SLP240 LAST T00560039 401060056
KSAV 210440Z 36013G18KT 10SM OVC009 06/04 A3023 RMK AO2 CIG 007V012 T00560044
KSAV 210353Z 02014G19KT 10SM BKN011 BKN018 OVC024 06/04 A3022 RMK AO2 RAE0254B12E33 SLP234 P0001 T00560044
KSAV 210253Z 02013G21KT 7SM -RA BKN007 OVC014 06/04 A3021 RMK AO2 SLP230 P0005 60020 T00560044 51010
KSAV 210153Z 02011KT 7SM -RA BKN008 BKN014 OVC042 06/04 A3020 RMK AO2 SLP226 P0006 T00610044